Time;durP1;ratioP1;P1;durP2;ratioP2;P2;SDS_P1;SDS_P2;PMS_P1;PMS_P2;Temp;Humidity;BMP_temperature;BMP_pressure;BME280_temperature;BME280_humidity;BME280_pressure;Samples;Min_cycle;Max_cycle;Signal;HPM_P1;HPM_P2
2022/08/07 04:02:56;;;;;;;2.27;2.07;;;17.50;99.90;;;;;;4992860;28;20454;-75
2022/08/07 04:05:23;;;;;;;4.63;3.10;;;17.50;99.90;;;;;;4994511;28;20444;-75
2022/08/07 04:07:51;;;;;;;6.53;2.70;;;17.50;99.90;;;;;;4994854;28;20459;-75
2022/08/07 04:10:19;;;;;;;2.17;1.97;;;17.50;99.90;;;;;;4995653;28;20460;-76
2022/08/07 04:12:46;;;;;;;2.43;2.13;;;17.50;99.90;;;;;;5014192;28;20979;-75
2022/08/07 04:15:15;;;;;;;3.90;2.40;;;17.60;99.90;;;;;;5014442;28;20458;-76
2022/08/07 04:17:43;;;;;;;2.90;2.40;;;17.60;99.90;;;;;;5014097;28;20494;-76
2022/08/07 04:20:12;;;;;;;2.63;2.03;;;17.60;99.90;;;;;;5014323;28;20477;-76
2022/08/07 04:22:40;;;;;;;2.57;2.07;;;17.60;99.90;;;;;;5013639;28;20458;-76
2022/08/07 04:25:09;;;;;;;3.07;2.20;;;17.70;99.90;;;;;;5013776;28;20471;-76
2022/08/07 04:27:36;;;;;;;2.87;2.00;;;17.70;99.90;;;;;;5013960;28;20946;-76
2022/08/07 04:30:04;;;;;;;2.33;1.93;;;17.70;99.90;;;;;;5014010;28;20466;-76
2022/08/07 04:32:32;;;;;;;3.30;2.00;;;17.70;99.90;;;;;;5012468;28;20561;-76
2022/08/07 04:35:01;;;;;;;2.93;2.10;;;17.70;99.90;;;;;;5013738;28;20455;-76
2022/08/07 04:37:30;;;;;;;6.23;2.50;;;17.70;99.90;;;;;;5013771;28;20494;-76
2022/08/07 04:39:57;;;;;;;5.00;2.40;;;17.60;99.90;;;;;;5014332;28;20458;-76
2022/08/07 04:42:29;;;;;;;3.20;1.90;;;17.60;99.90;;;;;;5013453;28;20482;-76
2022/08/07 04:44:57;;;;;;;4.73;2.77;;;17.60;99.90;;;;;;5013438;28;20518;-76
2022/08/07 04:47:34;;;;;;;3.10;2.20;;;17.70;99.90;;;;;;5013796;28;20462;-76
2022/08/07 04:50:10;;;;;;;3.40;2.10;;;17.70;99.90;;;;;;5013872;28;20439;-76
2022/08/07 04:52:44;;;;;;;2.60;2.17;;;17.60;99.90;;;;;;5013431;28;20462;-76
2022/08/07 04:55:22;;;;;;;5.73;1.90;;;17.70;99.90;;;;;;5013491;28;20435;-76
2022/08/07 04:57:54;;;;;;;2.23;1.93;;;17.70;99.90;;;;;;5013634;28;20864;-76
2022/08/07 05:00:31;;;;;;;2.93;1.83;;;17.70;99.90;;;;;;5013337;28;20457;-77
2022/08/07 05:03:04;;;;;;;4.03;2.30;;;17.70;99.90;;;;;;5013788;28;20555;-77
2022/08/07 05:05:35;;;;;;;2.37;1.90;;;17.70;99.90;;;;;;5013302;28;20451;-77
2022/08/07 05:08:10;;;;;;;3.00;2.37;;;17.70;99.90;;;;;;5013587;28;20431;-77
2022/08/07 05:10:41;;;;;;;4.83;2.60;;;17.70;99.90;;;;;;5013167;28;20480;-77
2022/08/07 05:13:14;;;;;;;3.10;2.27;;;17.70;99.90;;;;;;5013224;28;20939;-78
2022/08/07 05:15:43;;;;;;;4.37;2.57;;;17.70;99.90;;;;;;5012847;28;20939;-77
2022/08/07 05:18:18;;;;;;;2.87;2.27;;;17.70;99.90;;;;;;5013375;28;20497;-78
2022/08/07 05:20:49;;;;;;;6.13;3.20;;;17.60;99.90;;;;;;5013150;28;20477;-77
2022/08/07 05:23:20;;;;;;;5.17;3.33;;;17.70;99.90;;;;;;5013272;28;20458;-77
2022/08/07 05:25:49;;;;;;;4.60;3.40;;;17.70;99.90;;;;;;5012861;28;20466;-78
2022/08/07 05:28:17;;;;;;;5.33;2.90;;;17.60;99.90;;;;;;5013183;28;20657;-78
2022/08/07 05:30:45;;;;;;;4.30;3.43;;;17.60;99.90;;;;;;5012425;28;20847;-78
2022/08/07 05:33:13;;;;;;;3.40;2.83;;;17.60;99.90;;;;;;5013105;28;20466;-78
2022/08/07 05:35:42;;;;;;;4.37;3.63;;;17.60;99.90;;;;;;5012555;28;20455;-78
2022/08/07 05:38:10;;;;;;;7.13;3.40;;;17.60;99.90;;;;;;5013053;28;20501;-78
2022/08/07 05:40:39;;;;;;;6.93;3.50;;;17.60;99.90;;;;;;5012550;28;20843;-78
2022/08/07 05:43:06;;;;;;;6.57;4.20;;;17.60;99.90;;;;;;5012799;28;20819;-78
2022/08/07 05:45:33;;;;;;;5.17;3.67;;;17.70;99.90;;;;;;5012732;28;20454;-78
2022/08/07 05:48:03;;;;;;;6.67;3.77;;;17.70;99.90;;;;;;5012665;28;20465;-78
2022/08/07 05:50:32;;;;;;;4.43;4.03;;;17.70;99.90;;;;;;5012561;28;20822;-78
2022/08/07 05:52:59;;;;;;;6.93;3.60;;;17.70;99.90;;;;;;5012877;28;20486;-78
2022/08/07 05:55:26;;;;;;;6.70;3.50;;;17.70;99.90;;;;;;5012217;28;20839;-78
2022/08/07 05:57:56;;;;;;;6.07;3.40;;;17.80;99.90;;;;;;5015944;28;20967;-78
2022/08/07 06:00:24;;;;;;;6.90;3.40;;;17.80;99.90;;;;;;5016405;28;20459;-78
2022/08/07 06:02:53;;;;;;;4.73;3.20;;;17.80;99.90;;;;;;5016115;28;20465;-78
2022/08/07 06:05:25;;;;;;;4.83;4.00;;;17.80;99.90;;;;;;5015536;28;20454;-78
2022/08/07 06:07:53;;;;;;;5.23;3.97;;;17.80;99.90;;;;;;5012668;28;20487;-78
2022/08/07 06:10:20;;;;;;;4.07;3.67;;;17.90;99.90;;;;;;5012540;28;20461;-78
2022/08/07 06:12:47;;;;;;;9.77;2.97;;;17.90;99.90;;;;;;5012626;28;20525;-78
2022/08/07 06:15:17;;;;;;;5.03;3.00;;;17.90;99.90;;;;;;5012156;28;20459;-78
2022/08/07 06:17:44;;;;;;;4.00;3.13;;;17.90;99.90;;;;;;5012523;28;21043;-78
2022/08/07 06:20:11;;;;;;;4.60;2.80;;;18.00;99.90;;;;;;5012058;28;20455;-78
2022/08/07 06:22:40;;;;;;;4.00;3.17;;;18.00;99.90;;;;;;5012135;28;20459;-78
2022/08/07 06:25:08;;;;;;;3.73;3.20;;;18.00;99.90;;;;;;5011924;28;20465;-78
2022/08/07 06:27:35;;;;;;;3.47;2.80;;;18.10;99.90;;;;;;5012493;28;20493;-78
2022/08/07 06:30:02;;;;;;;3.90;3.20;;;18.10;99.90;;;;;;5012068;28;20454;-78
2022/08/07 06:32:31;;;;;;;3.10;2.77;;;18.10;99.90;;;;;;5011617;28;20479;-78
2022/08/07 06:34:59;;;;;;;2.90;2.57;;;18.20;99.90;;;;;;5011701;28;20460;-78
2022/08/07 06:37:26;;;;;;;5.60;3.13;;;18.20;99.90;;;;;;5012261;28;20494;-78
2022/08/07 06:39:53;;;;;;;3.87;2.87;;;18.30;99.90;;;;;;5012300;28;20897;-78
2022/08/07 06:42:24;;;;;;;3.70;2.93;;;18.30;99.90;;;;;;5012146;28;20521;-78
2022/08/07 06:44:51;;;;;;;3.53;2.47;;;18.30;99.90;;;;;;5012097;28;20450;-78
2022/08/07 06:47:19;;;;;;;3.70;2.63;;;18.40;99.90;;;;;;5012053;28;20462;-78
2022/08/07 06:49:47;;;;;;;4.67;2.63;;;18.50;99.90;;;;;;5011961;28;20803;-77
2022/08/07 06:52:17;;;;;;;5.70;3.30;;;18.50;99.90;;;;;;5012155;28;20479;-78
2022/08/07 06:54:46;;;;;;;2.40;2.13;;;18.60;99.90;;;;;;5012478;28;20541;-78
2022/08/07 06:57:13;;;;;;;2.77;2.50;;;18.60;99.90;;;;;;5015999;28;20982;-78
2022/08/07 06:59:41;;;;;;;3.93;2.47;;;18.70;99.90;;;;;;5015823;28;20459;-78
2022/08/07 07:02:15;;;;;;;2.80;2.13;;;18.70;99.90;;;;;;5015408;28;20493;-78
2022/08/07 07:04:43;;;;;;;2.97;2.40;;;18.80;99.90;;;;;;5015578;28;20463;-78
2022/08/07 07:07:12;;;;;;;2.60;2.40;;;18.90;99.90;;;;;;5015914;28;20453;-78
2022/08/07 07:09:45;;;;;;;2.33;1.87;;;18.90;99.90;;;;;;5015666;28;20458;-78
2022/08/07 07:12:24;;;;;;;3.20;2.20;;;19.00;99.90;;;;;;5015850;28;20474;-78
2022/08/07 07:15:00;;;;;;;2.40;2.20;;;19.10;99.90;;;;;;5015292;28;20486;-78
2022/08/07 07:17:33;;;;;;;2.60;2.20;;;19.10;99.90;;;;;;5015650;28;20493;-78
2022/08/07 07:20:02;;;;;;;2.40;2.00;;;19.20;99.90;;;;;;5015583;28;20900;-78
2022/08/07 07:22:31;;;;;;;2.97;2.10;;;19.30;99.90;;;;;;5015377;28;20474;-78
2022/08/07 07:25:00;;;;;;;3.77;2.03;;;19.30;99.90;;;;;;5015107;28;20465;-78
2022/08/07 07:27:32;;;;;;;3.83;1.77;;;19.50;99.90;;;;;;5015623;28;20459;-78
2022/08/07 07:30:02;;;;;;;1.73;1.60;;;19.50;99.90;;;;;;5015753;28;20447;-77
2022/08/07 07:32:33;;;;;;;4.60;1.80;;;19.60;99.90;;;;;;5015202;28;20489;-78
2022/08/07 07:35:02;;;;;;;1.93;1.73;;;19.70;99.90;;;;;;5015478;28;20442;-78
2022/08/07 07:37:33;;;;;;;4.93;1.90;;;19.80;99.90;;;;;;5015712;28;20490;-78
2022/08/07 07:40:03;;;;;;;2.27;2.00;;;19.80;99.90;;;;;;5015540;28;20445;-78
2022/08/07 07:42:31;;;;;;;2.20;1.90;;;19.90;99.90;;;;;;5015198;28;21020;-78
2022/08/07 07:45:01;;;;;;;2.60;1.83;;;20.00;99.90;;;;;;5014694;28;20461;-78
2022/08/07 07:47:29;;;;;;;2.33;1.70;;;20.00;99.90;;;;;;5014802;28;20546;-77
2022/08/07 07:49:57;;;;;;;5.27;1.90;;;20.20;99.90;;;;;;5014558;28;20463;-78
2022/08/07 07:52:25;;;;;;;1.70;1.60;;;20.30;99.90;;;;;;5014826;28;20474;-78
2022/08/07 07:54:55;;;;;;;1.60;1.50;;;20.30;99.90;;;;;;5014409;28;20454;-78
2022/08/07 07:57:24;;;;;;;2.00;1.80;;;20.50;99.90;;;;;;5016955;28;21013;-78
2022/08/07 07:59:51;;;;;;;1.90;1.80;;;20.50;99.90;;;;;;5018892;28;20466;-78
2022/08/07 08:02:20;;;;;;;2.77;1.70;;;20.60;99.90;;;;;;5018499;28;20557;-78
2022/08/07 08:04:48;;;;;;;3.37;1.93;;;20.70;99.90;;;;;;5019835;28;20458;-78
2022/08/07 08:07:16;;;;;;;2.27;1.70;;;20.80;99.90;;;;;;5019226;28;20463;-78
2022/08/07 08:09:44;;;;;;;2.30;1.63;;;20.90;99.90;;;;;;5020971;28;20831;-78
2022/08/07 08:12:13;;;;;;;2.27;1.70;;;21.00;99.90;;;;;;5020870;28;20480;-78
2022/08/07 08:14:41;;;;;;;2.90;1.70;;;21.10;99.90;;;;;;5021731;28;20569;-79
2022/08/07 08:17:10;;;;;;;4.07;1.63;;;21.20;99.90;;;;;;5021103;28;20451;-78
2022/08/07 08:19:38;;;;;;;5.00;1.70;;;21.30;99.90;;;;;;5021741;28;20442;-78
2022/08/07 08:27:41;;;;;;;4.47;1.80;;;21.60;99.90;;;;;;5021496;28;20497;-78
2022/08/07 08:30:10;;;;;;;2.80;1.40;;;21.80;99.90;;;;;;5020584;28;20981;-79
2022/08/07 08:32:40;;;;;;;1.77;1.30;;;21.90;99.90;;;;;;5020043;28;20450;-78
2022/08/07 08:35:12;;;;;;;2.17;1.40;;;22.00;99.90;;;;;;5020903;28;20446;-78
2022/08/07 08:37:41;;;;;;;1.40;1.30;;;22.20;99.90;;;;;;5021071;28;20478;-78
2022/08/07 08:40:21;;;;;;;3.43;1.60;;;22.20;99.90;;;;;;5020717;28;20565;-78
2022/08/07 08:42:55;;;;;;;1.93;1.30;;;22.40;99.90;;;;;;5022073;28;20567;-78
2022/08/07 08:45:28;;;;;;;1.40;1.00;;;22.50;99.90;;;;;;5020915;28;20456;-78
2022/08/07 08:48:04;;;;;;;2.10;1.47;;;22.70;99.90;;;;;;5021048;28;20463;-79
2022/08/07 08:50:36;;;;;;;3.33;1.50;;;22.90;99.90;;;;;;5021473;28;21162;-78
2022/08/07 08:53:09;;;;;;;1.23;1.00;;;23.00;99.90;;;;;;5020258;28;20449;-79
2022/08/07 08:55:40;;;;;;;2.30;1.47;;;23.10;99.90;;;;;;5019164;28;20435;-79
2022/08/07 08:58:15;;;;;;;2.53;1.20;;;23.30;99.90;;;;;;5020112;28;20494;-78
2022/08/07 09:00:45;;;;;;;4.13;1.30;;;23.50;99.90;;;;;;5020100;28;20486;-78
2022/08/07 09:03:20;;;;;;;1.87;1.20;;;23.60;99.90;;;;;;5020349;28;20512;-78
2022/08/07 09:05:52;;;;;;;1.33;1.20;;;23.70;99.90;;;;;;5020053;28;20481;-78
2022/08/07 09:08:29;;;;;;;1.47;1.20;;;23.90;99.90;;;;;;5020770;28;20436;-79
2022/08/07 09:11:17;;;;;;;3.50;1.00;;;24.10;99.20;;;;;;5020567;28;20475;-79
2022/08/07 09:13:58;;;;;;;3.23;1.47;;;24.10;99.90;;;;;;5020846;28;21129;-79
2022/08/07 09:16:36;;;;;;;1.73;1.30;;;24.30;99.10;;;;;;5020802;28;20443;-78
2022/08/07 09:19:15;;;;;;;1.03;0.93;;;24.50;99.90;;;;;;5020616;28;20479;-79
2022/08/07 09:21:52;;;;;;;1.70;1.10;;;24.60;97.40;;;;;;5020931;28;20475;-79
2022/08/07 09:24:33;;;;;;;1.50;1.00;;;24.80;98.00;;;;;;5020114;28;20446;-79
2022/08/07 09:27:11;;;;;;;1.20;1.00;;;25.00;97.90;;;;;;5021055;28;20458;-78
2022/08/07 09:29:53;;;;;;;1.93;1.00;;;25.20;96.50;;;;;;5021311;28;20453;-79
2022/08/07 09:32:28;;;;;;;1.77;1.10;;;25.30;94.70;;;;;;5020404;28;21030;-79
2022/08/07 09:35:07;;;;;;;1.50;1.20;;;25.50;93.70;;;;;;5020735;28;20925;-79
2022/08/07 09:37:41;;;;;;;1.73;0.97;;;25.60;93.40;;;;;;5021074;28;20438;-79
2022/08/07 09:40:16;;;;;;;1.93;0.80;;;25.70;92.50;;;;;;5020643;28;20533;-78
2022/08/07 09:42:54;;;;;;;2.33;1.03;;;25.80;92.80;;;;;;5020499;28;20445;-79
2022/08/07 09:45:36;;;;;;;1.37;0.90;;;25.90;91.70;;;;;;5020003;28;20462;-79
2022/08/07 09:48:26;;;;;;;2.90;0.90;;;26.00;91.90;;;;;;5020257;28;20463;-79
2022/08/07 09:51:05;;;;;;;2.60;1.10;;;26.00;90.90;;;;;;5019967;28;20866;-79
2022/08/07 09:53:37;;;;;;;1.37;0.97;;;26.10;90.70;;;;;;5017578;28;20463;-79
2022/08/07 09:56:41;;;;;;;1.10;1.00;;;26.30;92.60;;;;;;5012719;28;20446;-80
2022/08/07 09:59:26;;;;;;;1.50;1.10;;;26.30;91.40;;;;;;5012664;28;20483;-79
2022/08/07 10:02:25;;;;;;;1.10;0.80;;;26.50;92.40;;;;;;5012430;28;20509;-78
2022/08/07 10:05:27;;;;;;;4.73;1.00;;;26.70;90.70;;;;;;5012460;28;20461;-78
2022/08/07 10:08:04;;;;;;;1.37;0.97;;;26.80;88.80;;;;;;5012682;28;20454;-78
2022/08/07 10:10:40;;;;;;;3.80;1.60;;;26.90;90.40;;;;;;5012427;28;20455;-79
2022/08/07 10:13:45;;;;;;;1.43;0.90;;;27.00;90.30;;;;;;5012300;28;20449;-79
2022/08/07 10:16:33;;;;;;;1.63;1.00;;;27.20;88.10;;;;;;5035629;23;20578;-72
2022/08/07 10:19:30;;;;;;;1.90;1.20;;;27.30;87.30;;;;;;5012190;28;20513;-71
2022/08/07 10:22:07;;;;;;;1.67;1.20;;;27.50;86.90;;;;;;5011860;28;20950;-72
2022/08/07 10:24:55;;;;;;;1.17;0.90;;;27.70;87.40;;;;;;5011988;28;20461;-71
2022/08/07 10:27:56;;;;;;;1.80;1.60;;;27.80;86.50;;;;;;5012094;28;20442;-72
2022/08/07 10:30:33;;;;;;;2.53;1.20;;;27.90;85.40;;;;;;5010601;28;20954;-72
2022/08/07 10:33:14;;;;;;;1.30;1.00;;;28.20;87.40;;;;;;5012023;28;20462;-72
2022/08/07 10:35:55;;;;;;;1.00;0.80;;;28.40;82.80;;;;;;5011981;28;20565;-71
2022/08/07 10:38:48;;;;;;;2.10;1.03;;;28.50;82.40;;;;;;5012050;28;20497;-71
2022/08/07 10:41:28;;;;;;;1.50;1.17;;;28.70;79.10;;;;;;5012046;28;20466;-73
2022/08/07 10:44:02;;;;;;;2.57;0.90;;;28.80;80.70;;;;;;5011997;28;20447;-72
2022/08/07 10:46:35;;;;;;;1.70;1.17;;;28.80;78.30;;;;;;5011815;28;20474;-71
2022/08/07 10:49:12;;;;;;;2.77;1.80;;;28.80;80.20;;;;;;5011806;28;20522;-72
2022/08/07 10:51:50;;;;;;;4.20;1.20;;;29.00;80.50;;;;;;5012085;28;20860;-71
2022/08/07 10:54:25;;;;;;;4.03;1.47;;;29.00;78.20;;;;;;5011468;28;20903;-72
2022/08/07 10:57:06;;;;;;;3.43;0.90;;;29.10;78.70;;;;;;5011629;28;20899;-72
2022/08/07 10:59:47;;;;;;;1.70;0.90;;;29.20;78.20;;;;;;5011310;28;20516;-72
2022/08/07 11:02:21;;;;;;;2.20;1.10;;;29.30;78.90;;;;;;5011693;28;20451;-72
2022/08/07 11:05:01;;;;;;;0.80;0.70;;;29.60;76.60;;;;;;5011711;28;20435;-72
2022/08/07 11:07:38;;;;;;;1.90;0.90;;;29.70;73.90;;;;;;5011909;28;20884;-72
2022/08/07 11:10:17;;;;;;;1.47;0.80;;;29.90;72.60;;;;;;5011584;28;20439;-71
2022/08/07 11:12:50;;;;;;;1.53;0.90;;;30.10;73.80;;;;;;5011764;28;20455;-71
2022/08/07 11:15:22;;;;;;;0.90;0.73;;;30.20;74.60;;;;;;5011333;28;20494;-71
2022/08/07 11:17:57;;;;;;;1.27;0.80;;;30.20;73.30;;;;;;5011447;28;20488;-71
2022/08/07 11:20:33;;;;;;;1.30;0.93;;;30.10;73.50;;;;;;5011434;28;20986;-72
2022/08/07 11:23:07;;;;;;;1.30;1.00;;;30.10;74.60;;;;;;5011540;28;20439;-72
2022/08/07 11:25:37;;;;;;;1.30;0.77;;;30.00;73.70;;;;;;5011343;28;20478;-72
2022/08/07 11:28:10;;;;;;;1.50;1.00;;;30.10;74.30;;;;;;5011518;28;20459;-72
2022/08/07 11:30:45;;;;;;;2.00;1.27;;;30.10;72.90;;;;;;5011353;28;20459;-73
2022/08/07 11:33:23;;;;;;;2.80;1.77;;;30.20;74.50;;;;;;5011701;28;20461;-72
2022/08/07 11:35:59;;;;;;;1.43;0.90;;;30.50;70.10;;;;;;5011391;28;20561;-72
2022/08/07 11:38:33;;;;;;;1.90;1.10;;;30.60;71.10;;;;;;5011400;28;20447;-72
2022/08/07 11:41:07;;;;;;;1.43;0.90;;;30.70;69.90;;;;;;5012436;28;20457;-72
2022/08/07 11:43:42;;;;;;;2.50;0.97;;;30.70;68.60;;;;;;5015051;28;20462;-72
2022/08/07 11:46:34;;;;;;;1.57;1.23;;;30.70;69.20;;;;;;5014711;28;20482;-72
2022/08/07 11:49:25;;;;;;;1.77;1.10;;;31.00;70.50;;;;;;5010743;28;20470;-72
2022/08/07 11:52:08;;;;;;;1.20;0.70;;;31.10;70.00;;;;;;5015003;28;20437;-73
2022/08/07 11:54:53;;;;;;;2.20;0.80;;;31.60;73.50;;;;;;5014278;28;20977;-72
2022/08/07 11:57:22;;;;;;;2.47;0.90;;;32.30;68.30;;;;;;5014518;28;20977;-72
2022/08/07 12:00:10;;;;;;;3.23;0.80;;;32.40;67.70;;;;;;5014449;28;20493;-72
2022/08/07 12:03:12;;;;;;;1.10;0.80;;;32.10;67.30;;;;;;5014739;28;20894;-72
2022/08/07 12:05:48;;;;;;;2.00;0.97;;;31.90;68.80;;;;;;5014082;28;20478;-72
2022/08/07 12:08:20;;;;;;;1.40;0.80;;;31.80;67.60;;;;;;5014527;28;20453;-72
2022/08/07 12:10:52;;;;;;;1.60;1.00;;;31.70;68.70;;;;;;5014296;28;20446;-73
2022/08/07 12:13:25;;;;;;;1.00;0.90;;;32.10;65.70;;;;;;5014259;28;20951;-72
2022/08/07 12:15:56;;;;;;;1.00;0.90;;;32.10;66.20;;;;;;5014702;28;20486;-72
2022/08/07 12:18:29;;;;;;;1.23;0.90;;;32.10;66.60;;;;;;5014886;28;20505;-73
2022/08/07 12:21:07;;;;;;;1.73;0.93;;;32.00;66.40;;;;;;5014340;28;20466;-73
2022/08/07 12:23:44;;;;;;;1.00;0.90;;;32.00;66.00;;;;;;5014418;28;20596;-71
2022/08/07 12:26:18;;;;;;;1.67;0.80;;;31.80;66.30;;;;;;5014112;28;20485;-72
2022/08/07 12:28:52;;;;;;;1.97;0.93;;;31.90;65.40;;;;;;5014172;28;20480;-72
2022/08/07 12:31:26;;;;;;;1.20;0.80;;;31.80;65.00;;;;;;5013744;28;20477;-72
2022/08/07 12:33:54;;;;;;;1.97;0.90;;;31.80;67.60;;;;;;5014061;28;20524;-72
2022/08/07 12:36:23;;;;;;;1.63;1.00;;;31.90;65.70;;;;;;5013481;28;20467;-72
2022/08/07 12:38:52;;;;;;;1.20;0.90;;;31.90;64.70;;;;;;5014019;28;20992;-72
2022/08/07 12:41:23;;;;;;;1.63;0.93;;;31.80;63.80;;;;;;5013857;28;20469;-72
2022/08/07 12:43:52;;;;;;;1.60;1.10;;;31.90;63.40;;;;;;5013720;28;20443;-74
2022/08/07 12:46:28;;;;;;;3.80;1.20;;;31.70;65.80;;;;;;5013520;28;20474;-72
2022/08/07 12:49:03;;;;;;;1.30;1.00;;;31.50;64.40;;;;;;5013975;28;20524;-72
2022/08/07 12:51:39;;;;;;;1.43;1.00;;;31.30;66.30;;;;;;5013599;28;20454;-71
2022/08/07 12:54:16;;;;;;;1.20;1.00;;;31.30;67.60;;;;;;5012321;28;20446;-72
2022/08/07 12:56:49;;;;;;;2.50;1.20;;;31.20;64.90;;;;;;5013684;28;20483;-71
2022/08/07 12:59:20;;;;;;;2.40;1.43;;;31.30;66.10;;;;;;5013639;28;20481;-71
2022/08/07 13:02:00;;;;;;;2.00;0.97;;;31.40;64.50;;;;;;5013428;28;20490;-72
2022/08/07 13:04:40;;;;;;;2.07;1.13;;;31.50;66.40;;;;;;5012909;28;20458;-72
2022/08/07 13:07:36;;;;;;;1.00;0.87;;;31.50;65.60;;;;;;5013462;28;20470;-71
2022/08/07 13:10:23;;;;;;;1.57;1.07;;;31.30;64.10;;;;;;5002181;28;20462;-72
2022/08/07 13:13:10;;;;;;;1.23;1.00;;;31.40;63.70;;;;;;5013244;28;20439;-72
2022/08/07 13:15:50;;;;;;;5.10;1.10;;;31.40;65.80;;;;;;5012716;28;20482;-73
2022/08/07 13:18:27;;;;;;;1.90;1.00;;;31.40;66.50;;;;;;5013116;28;20454;-72
2022/08/07 13:21:01;;;;;;;2.80;1.20;;;31.30;65.00;;;;;;5012957;28;20544;-72
2022/08/07 13:23:38;;;;;;;1.50;1.00;;;31.30;67.00;;;;;;5012782;28;20471;-73
2022/08/07 13:26:12;;;;;;;1.50;1.20;;;31.30;65.30;;;;;;5012671;28;20474;-72
2022/08/07 13:28:46;;;;;;;1.10;1.00;;;31.30;67.10;;;;;;5012854;28;20447;-73
2022/08/07 13:31:20;;;;;;;1.20;1.00;;;31.30;66.20;;;;;;5012943;28;20904;-73
2022/08/07 13:33:50;;;;;;;1.60;1.30;;;31.30;67.30;;;;;;5012545;28;20553;-73
2022/08/07 13:36:23;;;;;;;2.30;1.27;;;31.20;67.80;;;;;;5012646;28;20479;-73
2022/08/07 13:38:58;;;;;;;2.77;1.60;;;31.20;68.70;;;;;;5012700;28;20477;-72
2022/08/07 13:41:34;;;;;;;2.20;1.20;;;31.30;66.40;;;;;;5012744;28;20460;-72
2022/08/07 13:44:05;;;;;;;5.63;1.10;;;31.30;65.70;;;;;;5012632;28;20473;-73
2022/08/07 13:46:35;;;;;;;1.90;1.40;;;31.30;66.20;;;;;;5012603;28;20474;-73
2022/08/07 13:49:04;;;;;;;2.07;1.20;;;31.30;66.30;;;;;;5012726;28;20461;-73
2022/08/07 13:51:33;;;;;;;1.30;1.03;;;31.30;64.20;;;;;;5012743;28;20457;-72
2022/08/07 13:54:04;;;;;;;1.00;0.90;;;31.30;64.50;;;;;;5012267;28;20966;-72
2022/08/07 13:56:34;;;;;;;1.40;0.90;;;31.40;66.10;;;;;;5012166;28;20478;-72
2022/08/07 13:59:04;;;;;;;2.33;1.20;;;31.40;64.70;;;;;;5012710;28;20459;-72
2022/08/07 14:01:34;;;;;;;1.37;1.10;;;31.20;65.90;;;;;;5012797;28;20462;-72
2022/08/07 14:04:07;;;;;;;1.50;1.00;;;31.00;63.20;;;;;;5012387;28;20542;-73
2022/08/07 14:06:36;;;;;;;2.63;1.20;;;30.80;65.70;;;;;;5012232;28;20485;-72
2022/08/07 14:09:05;;;;;;;1.53;1.00;;;30.70;67.50;;;;;;5012310;28;20834;-72
2022/08/07 14:11:36;;;;;;;3.63;1.20;;;30.70;66.50;;;;;;5012189;28;20885;-72
2022/08/07 14:14:09;;;;;;;2.40;1.20;;;30.70;66.30;;;;;;5012008;28;20954;-72
2022/08/07 14:16:41;;;;;;;2.17;1.47;;;30.70;67.00;;;;;;5011986;28;20540;-72
2022/08/07 14:19:17;;;;;;;1.63;1.13;;;30.70;66.70;;;;;;5012083;28;20549;-72
2022/08/07 14:21:49;;;;;;;1.87;1.50;;;30.80;67.20;;;;;;5011840;28;20815;-73
2022/08/07 14:24:22;;;;;;;1.10;1.00;;;30.80;67.70;;;;;;5011969;28;20546;-72
2022/08/07 14:26:51;;;;;;;1.67;1.27;;;30.80;66.70;;;;;;5012284;28;20486;-72
2022/08/07 14:29:23;;;;;;;2.40;1.00;;;30.80;67.20;;;;;;5012370;28;20458;-73
2022/08/07 14:31:52;;;;;;;1.40;1.20;;;30.80;65.10;;;;;;5011928;28;20439;-73
2022/08/07 14:34:20;;;;;;;2.90;1.37;;;30.80;66.90;;;;;;5011773;28;20454;-72
2022/08/07 14:36:48;;;;;;;2.17;1.10;;;30.90;67.30;;;;;;5011936;28;20475;-73
2022/08/07 14:39:17;;;;;;;1.50;1.00;;;30.90;67.40;;;;;;5011630;28;20454;-72
2022/08/07 14:41:49;;;;;;;1.80;1.20;;;30.90;66.80;;;;;;5011862;28;20459;-72
2022/08/07 14:44:17;;;;;;;1.80;1.17;;;30.90;66.90;;;;;;5011767;28;20459;-73
2022/08/07 14:46:47;;;;;;;2.07;1.20;;;30.90;67.50;;;;;;5012072;28;20967;-72
2022/08/07 14:49:16;;;;;;;1.77;1.10;;;30.90;67.30;;;;;;5011674;28;20449;-73
2022/08/07 14:51:44;;;;;;;1.50;1.00;;;31.00;66.70;;;;;;5011883;28;20465;-72
2022/08/07 14:54:15;;;;;;;1.30;1.20;;;31.00;67.00;;;;;;5011439;28;20454;-72
2022/08/07 14:56:46;;;;;;;1.00;0.90;;;31.00;66.30;;;;;;5011506;28;20540;-72
2022/08/07 14:59:14;;;;;;;2.10;1.20;;;31.00;66.70;;;;;;5011305;28;20462;-72
2022/08/07 15:01:42;;;;;;;3.33;0.90;;;31.00;67.40;;;;;;5011438;28;20951;-71
2022/08/07 15:04:12;;;;;;;2.53;1.20;;;31.00;67.50;;;;;;5011765;28;20486;-76
2022/08/07 15:06:40;;;;;;;1.50;1.10;;;30.90;65.80;;;;;;5011377;28;20943;-73
2022/08/07 15:09:11;;;;;;;2.27;1.60;;;30.90;66.80;;;;;;5011514;28;20520;-73
2022/08/07 15:11:42;;;;;;;1.53;1.20;;;30.90;65.90;;;;;;5011470;28;20531;-72
2022/08/07 15:14:15;;;;;;;1.37;1.20;;;30.90;66.30;;;;;;5011855;28;20457;-73
2022/08/07 15:16:44;;;;;;;2.20;0.93;;;31.00;68.50;;;;;;5013613;28;20479;-71
2022/08/07 15:19:15;;;;;;;2.60;1.20;;;30.90;67.40;;;;;;5015075;28;20462;-71
2022/08/07 15:21:44;;;;;;;1.60;1.27;;;31.00;65.50;;;;;;5014982;28;20490;-70
2022/08/07 15:24:15;;;;;;;2.97;1.17;;;31.10;65.70;;;;;;5014448;28;20497;-71
2022/08/07 15:26:45;;;;;;;2.20;1.07;;;31.10;64.90;;;;;;5014809;28;20982;-71
2022/08/07 15:29:17;;;;;;;2.13;1.30;;;31.00;64.20;;;;;;5015247;28;20517;-71
2022/08/07 15:31:46;;;;;;;1.10;1.00;;;31.10;65.20;;;;;;5014841;28;20482;-71
2022/08/07 15:34:16;;;;;;;1.10;0.90;;;31.10;64.90;;;;;;5014722;28;20465;-71
2022/08/07 15:36:43;;;;;;;1.20;0.97;;;31.00;65.30;;;;;;5014456;28;20480;-71
2022/08/07 15:39:11;;;;;;;2.57;1.40;;;31.00;65.00;;;;;;5014629;28;20913;-72
2022/08/07 15:41:58;;;;;;;4.80;1.40;;;30.90;66.80;;;;;;5014645;28;20555;-71
2022/08/07 15:44:27;;;;;;;1.20;1.10;;;30.90;65.70;;;;;;5014334;28;20458;-72
2022/08/07 15:46:59;;;;;;;1.63;1.13;;;30.90;65.30;;;;;;5014568;28;20600;-73
2022/08/07 15:49:32;;;;;;;1.60;1.17;;;30.90;65.50;;;;;;5014697;28;20494;-73
2022/08/07 15:52:01;;;;;;;1.80;1.40;;;30.90;64.80;;;;;;5014625;28;20470;-73
2022/08/07 15:54:35;;;;;;;1.43;1.10;;;30.90;66.20;;;;;;5014512;28;20465;-74
2022/08/07 15:57:04;;;;;;;1.17;0.80;;;31.00;65.50;;;;;;5014400;28;21034;-72
2022/08/07 15:59:32;;;;;;;1.80;1.20;;;31.00;64.90;;;;;;5014271;28;20466;-72
2022/08/07 16:02:01;;;;;;;3.23;1.23;;;30.90;63.70;;;;;;5014577;28;20457;-72
2022/08/07 16:04:32;;;;;;;2.80;1.33;;;30.90;63.90;;;;;;5014023;28;20463;-73
2022/08/07 16:07:03;;;;;;;1.20;1.07;;;30.80;65.10;;;;;;5014164;28;20450;-72
2022/08/07 16:09:33;;;;;;;1.37;1.10;;;30.80;64.70;;;;;;5014114;28;20462;-72
2022/08/07 16:12:16;;;;;;;1.43;1.10;;;30.90;64.50;;;;;;5014006;28;20461;-72
2022/08/07 16:15:04;;;;;;;2.40;1.23;;;30.90;64.10;;;;;;5013807;28;20958;-72
2022/08/07 16:17:47;;;;;;;1.57;1.03;;;30.80;64.00;;;;;;5015048;28;20436;-74
2022/08/07 16:20:40;;;;;;;1.73;1.07;;;30.70;64.00;;;;;;5013526;28;21088;-74
2022/08/07 16:23:30;;;;;;;2.23;1.17;;;30.70;63.20;;;;;;5014393;28;20449;-73
2022/08/07 16:26:09;;;;;;;2.33;1.10;;;30.70;64.00;;;;;;5014009;28;20474;-74
2022/08/07 16:28:59;;;;;;;1.40;1.10;;;30.70;63.50;;;;;;5012788;28;21003;-74
2022/08/07 16:31:38;;;;;;;2.53;1.33;;;30.70;64.30;;;;;;5014238;28;20454;-74
2022/08/07 16:34:09;;;;;;;1.37;0.97;;;30.70;64.20;;;;;;5013849;28;20454;-74
2022/08/07 16:36:52;;;;;;;2.20;1.33;;;30.70;61.30;;;;;;5014096;28;20479;-74
2022/08/07 16:39:33;;;;;;;2.07;1.10;;;30.60;62.30;;;;;;5014225;28;20455;-74
2022/08/07 16:42:30;;;;;;;1.10;0.87;;;30.60;63.50;;;;;;5013414;28;21029;-75
2022/08/07 16:45:17;;;;;;;1.67;1.47;;;30.60;62.10;;;;;;5013773;28;20478;-73
2022/08/07 16:48:19;;;;;;;1.30;1.10;;;30.60;64.50;;;;;;5014048;28;20462;-74
2022/08/07 16:50:59;;;;;;;2.07;1.10;;;30.50;61.70;;;;;;4988896;28;20470;-74
2022/08/07 16:53:43;;;;;;;1.00;0.90;;;30.40;61.50;;;;;;5013777;28;20549;-74
2022/08/07 16:56:19;;;;;;;2.13;1.03;;;30.30;60.60;;;;;;5013279;28;21004;-74
2022/08/07 16:58:55;;;;;;;1.10;0.90;;;30.10;60.60;;;;;;5013948;28;20443;-72
2022/08/07 17:01:41;;;;;;;1.80;1.00;;;30.00;60.80;;;;;;5013772;28;20474;-73
2022/08/07 17:04:16;;;;;;;1.50;1.07;;;30.00;61.10;;;;;;5012316;28;20462;-74
2022/08/07 17:07:09;;;;;;;3.00;1.03;;;29.90;67.60;;;;;;5013311;28;20893;-73
2022/08/07 17:09:47;;;;;;;2.43;1.77;;;29.80;67.90;;;;;;5009069;28;20463;-73
2022/08/07 17:12:19;;;;;;;1.90;1.10;;;29.70;64.90;;;;;;5013379;28;20925;-73
2022/08/07 17:14:52;;;;;;;1.40;1.10;;;29.60;64.00;;;;;;5012787;28;20443;-73
2022/08/07 17:17:32;;;;;;;1.83;1.20;;;29.50;66.20;;;;;;5013203;28;20459;-73
2022/08/07 17:20:06;;;;;;;3.00;1.03;;;29.40;67.00;;;;;;5013008;28;20446;-73
2022/08/07 17:22:37;;;;;;;3.00;1.27;;;29.30;66.90;;;;;;5013198;28;20455;-74
2022/08/07 17:25:10;;;;;;;1.10;1.00;;;29.30;65.60;;;;;;5012594;28;20481;-74
2022/08/07 17:28:00;;;;;;;1.17;0.90;;;29.30;62.30;;;;;;5013501;28;20450;-73
2022/08/07 17:30:35;;;;;;;2.60;1.20;;;29.20;63.00;;;;;;5006698;28;20469;-73